Map

Track Data

SID SEASON NUMBER BASIN SUBBASIN NAME ISO_TIME NATURE LAT LON WMO_WIND WMO_PRES WMO_AGENCY TRACK_TYPE DIST2LAND LANDFALL IFLAG USA_AGENCY USA_ATCF_ID USA_LAT USA_LON USA_RECORD USA_STATUS USA_WIND USA_PRES USA_SSHS USA_R34_NE USA_R34_SE USA_R34_SW USA_R34_NW USA_R50_NE USA_R50_SE USA_R50_SW USA_R50_NW USA_R64_NE USA_R64_SE USA_R64_SW USA_R64_NW USA_POCI USA_ROCI USA_RMW USA_EYE TOKYO_LAT TOKYO_LON TOKYO_GRADE TOKYO_WIND TOKYO_PRES TOKYO_R50_DIR TOKYO_R50_LONG TOKYO_R50_SHORT TOKYO_R30_DIR TOKYO_R30_LONG TOKYO_R30_SHORT TOKYO_LAND CMA_LAT CMA_LON CMA_CAT CMA_WIND CMA_PRES HKO_LAT HKO_LON HKO_CAT HKO_WIND HKO_PRES NEWDELHI_LAT NEWDELHI_LON NEWDELHI_GRADE NEWDELHI_WIND NEWDELHI_PRES NEWDELHI_CI NEWDELHI_DP NEWDELHI_POCI REUNION_LAT REUNION_LON REUNION_TYPE REUNION_WIND REUNION_PRES REUNION_TNUM REUNION_CI REUNION_RMW REUNION_R34_NE REUNION_R34_SE REUNION_R34_SW REUNION_R34_NW REUNION_R50_NE REUNION_R50_SE REUNION_R50_SW REUNION_R50_NW REUNION_R64_NE REUNION_R64_SE REUNION_R64_SW REUNION_R64_NW BOM_LAT BOM_LON BOM_TYPE BOM_WIND BOM_PRES BOM_TNUM BOM_CI BOM_RMW BOM_R34_NE BOM_R34_SE BOM_R34_SW BOM_R34_NW BOM_R50_NE BOM_R50_SE BOM_R50_SW BOM_R50_NW BOM_R64_NE BOM_R64_SE BOM_R64_SW BOM_R64_NW BOM_ROCI BOM_POCI BOM_EYE BOM_POS_METHOD BOM_PRES_METHOD NADI_LAT NADI_LON NADI_CAT NADI_WIND NADI_PRES WELLINGTON_LAT WELLINGTON_LON WELLINGTON_WIND WELLINGTON_PRES DS824_LAT DS824_LON DS824_STAGE DS824_WIND DS824_PRES TD9636_LAT TD9636_LON TD9636_STAGE TD9636_WIND TD9636_PRES TD9635_LAT TD9635_LON TD9635_WIND TD9635_PRES TD9635_ROCI NEUMANN_LAT NEUMANN_LON NEUMANN_CLASS NEUMANN_WIND NEUMANN_PRES MLC_LAT MLC_LON MLC_CLASS MLC_WIND MLC_PRES USA_GUST BOM_GUST BOM_GUST_PER REUNION_GUST REUNION_GUST_PER USA_SEAHGT USA_SEARAD_NE USA_SEARAD_SE USA_SEARAD_SW USA_SEARAD_NW STORM_SPEED STORM_DIR
1947257N25154 1947 66 WP MM LAURA 1947-09-14 00:00:00 TS 24.5000 153.900 main 1761 1733 O________OOO__ jtwc_wp WP121947 24.5000 153.900 90 2 24.5000 153.900 TC 90 24.5000 153.900 3 90 24.5000 153.900 90 962 240 7 278
1947257N25154 1947 66 WP MM LAURA 1947-09-14 03:00:00 TS 24.5524 153.498 main 1725 1705 P________PPP__ WP121947 24.5480 153.460 90 2 24.5480 153.460 TC 90 24.5657 153.610 3 90 24.5480 153.460 90 962 240 7 279
1947257N25154 1947 66 WP MM LAURA 1947-09-14 06:00:00 TS 24.6062 153.151 main 1705 1676 O________OPO__ jtwc_wp WP121947 24.6000 153.100 90 2 24.6000 153.100 TC 90 24.6249 153.306 3 90 24.6000 153.100 90 962 240 6 281
1947257N25154 1947 66 WP MM LAURA 1947-09-14 09:00:00 TS 24.6608 152.887 main 1676 1655 P________PPP__ WP121947 24.6571 152.857 90 2 24.6571 152.857 TC 90 24.6718 152.974 3 90 24.6571 152.857 90 962 240 5 281
1947257N25154 1947 66 WP MM LAURA 1947-09-14 12:00:00 TS 24.7000 152.600 main 1655 1628 O________OOO__ jtwc_wp WP121947 24.7000 152.600 90 2 24.7000 152.600 TC 90 24.7000 152.600 4 90 24.7000 152.600 90 963 240 6 274
1947257N25154 1947 66 WP MM LAURA 1947-09-14 15:00:00 TS 24.7021 152.179 main 1628 1596 P________PPP__ WP121947 24.7001 152.180 90 2 24.7001 152.180 TC 90 24.7081 152.177 4 85 24.7001 152.180 90 963 240 8 270
1947257N25154 1947 66 WP MM LAURA 1947-09-14 18:00:00 TS 24.7032 151.705 main 1596 1570 O________OPO__ jtwc_wp WP121947 24.7000 151.700 90 2 24.7000 151.700 TC 90 24.7128 151.721 4 80 24.7000 151.700 90 964 240 8 272
1947257N25154 1947 66 WP MM LAURA 1947-09-14 21:00:00 TS 24.7352 151.246 main 1563 1529 P________PPP__ WP121947 24.7349 151.242 80 1 24.7349 151.242 TC 80 24.7361 151.255 4 75 24.7349 151.242 80 964 330 8 277
1947257N25154 1947 66 WP MM LAURA 1947-09-15 00:00:00 TS 24.8000 150.800 main 1529 1496 O________OOO__ jtwc_wp WP121947 24.8000 150.800 70 1 24.8000 150.800 TC 70 24.8000 150.800 4 70 24.8000 150.800 70 965 420 8 280
1947257N25154 1947 66 WP MM LAURA 1947-09-15 03:00:00 TS 24.8732 150.381 main 1496 1463 P________PPP__ WP121947 24.8698 150.392 70 1 24.8698 150.392 TC 70 24.8832 150.349 4 71 24.8698 150.392 70 965 390 8 285
1947257N25154 1947 66 WP MM LAURA 1947-09-15 06:00:00 TS 25.0038 149.979 main 1463 1421 O________OPO__ jtwc_wp WP121947 25.0000 150.000 70 1 25.0000 150.000 TC 70 25.0152 149.917 4 72 25.0000 150.000 70 965 360 8 294
1947257N25154 1947 66 WP MM LAURA 1947-09-15 09:00:00 TS 25.2075 149.559 main 1421 1370 P________PPP__ WP121947 25.2051 149.570 72 1 25.2051 149.570 TC 72 25.2146 149.527 4 73 25.2051 149.570 72 964 360 9 305
1947257N25154 1947 66 WP MM LAURA 1947-09-15 12:00:00 TS 25.5000 149.200 main 1370 1331 O________OOO__ jtwc_wp WP121947 25.5000 149.200 75 1 25.5000 149.200 TC 75 25.5000 149.200 4 75 25.5000 149.200 75 963 360 9 320
1947257N25154 1947 66 WP MM LAURA 1947-09-15 15:00:00 TS 25.8591 148.957 main 1322 1274 P________PPP__ WP121947 25.8548 148.962 75 1 25.8548 148.962 TC 75 25.8720 148.940 4 75 25.8548 148.962 75 965 330 9 335
1947257N25154 1947 66 WP MM LAURA 1947-09-15 18:00:00 TS 26.3074 148.786 main 1274 1218 O________OPO__ jtwc_wp WP121947 26.3000 148.800 75 1 26.3000 148.800 TC 75 26.3295 148.745 4 75 26.3000 148.800 75 968 300 10 343
1947257N25154 1947 66 WP MM LAURA 1947-09-15 21:00:00 TS 26.8268 148.627 main 1218 1159 P________PPP__ WP121947 26.8200 148.635 75 1 26.8200 148.635 TC 75 26.8472 148.603 4 75 26.8200 148.635 75 970 300 11 347
1947257N25154 1947 66 WP MM LAURA 1947-09-16 00:00:00 TS 27.4000 148.500 main 1159 1110 O________OOO__ jtwc_wp WP121947 27.4000 148.500 75 1 27.4000 148.500 TC 75 27.4000 148.500 4 75 27.4000 148.500 75 972 300 12 349
1947257N25154 1947 66 WP MM LAURA 1947-09-16 03:00:00 TS 27.9815 148.379 main 1102 1054 P________PPP__ WP121947 28.0000 148.378 72 1 28.0000 148.378 TC 72 27.9258 148.382 4 73 28.0000 148.378 72 972 360 12 351
1947257N25154 1947 66 WP MM LAURA 1947-09-16 06:00:00 TS 28.5706 148.301 main 1046 1006 O________OPO__ jtwc_wp WP121947 28.6000 148.300 70 1 28.6000 148.300 TC 70 28.4824 148.304 4 72 28.6000 148.300 70 973 420 12 355
1947257N25154 1947 66 WP MM LAURA 1947-09-16 09:00:00 TS 29.1307 148.276 main 1006 960 P________PPP__ WP121947 29.1500 148.277 70 1 29.1500 148.277 TC 70 29.0727 148.273 4 71 29.1500 148.277 70 973 420 11 359
1947257N25154 1947 66 WP MM LAURA 1947-09-16 12:00:00 TS 29.7000 148.300 main 960 914 O________OOO__ jtwc_wp WP121947 29.7000 148.300 70 1 29.7000 148.300 TC 70 29.7000 148.300 4 70 29.7000 148.300 70 973 420 12 2
1947257N25154 1947 66 WP MM LAURA 1947-09-16 15:00:00 TS 30.2881 148.332 main 914 877 P________PPP__ WP121947 30.2624 148.313 70 1 30.2624 148.313 TC 70 30.3652 148.389 4 70 30.2624 148.313 70 972 390 12 5
1947257N25154 1947 66 WP MM LAURA 1947-09-16 18:00:00 TS 30.9344 148.428 main 877 845 O________OPO__ jtwc_wp WP121947 30.9000 148.400 70 1 30.9000 148.400 TC 70 31.0603 148.529 4 70 30.9000 148.400 70 972 360 14 10
1947257N25154 1947 66 WP MM LAURA 1947-09-16 21:00:00 TS 31.6914 148.627 main 838 816 P________PPP__ WP121947 31.6775 148.612 70 1 31.6775 148.612 TC 70 31.7754 148.705 4 70 31.6627 148.611 70 973 300 16 14
1947257N25154 1947 66 WP MM LAURA 1947-09-17 00:00:00 TS 32.5000 148.900 main 816 800 O________OOO__ jtwc_wp WP121947 32.5000 148.900 70 1 32.5000 148.900 TC 70 32.5000 148.900 4 70 32.5000 148.900 70 974 240 17 17
1947257N25154 1947 66 WP MM LAURA 1947-09-17 03:00:00 TS 33.2950 149.200 main 804 799 P________P____ WP121947 33.2950 149.200 62 0 33.2950 149.200 TC 62 4 16 18
1947257N25154 1947 66 WP MM LAURA 1947-09-17 06:00:00 TS 34.0000 149.500 main 805 802 O________O____ jtwc_wp WP121947 34.0000 149.500 55 0 34.0000 149.500 TC 55 4 14 20
1947257N25154 1947 66 WP MM LAURA 1947-09-17 09:00:00 TS 34.5975 149.780 main 816 814 P________P____ WP121947 34.5975 149.780 50 0 34.5975 149.780 TC 50 4 11 22
1947257N25154 1947 66 WP MM LAURA 1947-09-17 12:00:00 TS 35.0000 150.000 main 826 825 O________O____ jtwc_wp WP121947 35.0000 150.000 45 0 35.0000 150.000 TC 45 6 26
1947257N25154 1947 66 WP MM LAURA 1947-09-17 15:00:00 TS 35.1674 150.123 main 833 833 P________P____ WP121947 35.1674 150.123 42 0 35.1674 150.123 TC 42 3 40
1947257N25154 1947 66 WP MM LAURA 1947-09-17 18:00:00 TS 35.2000 150.200 main 842 842 O________O____ jtwc_wp WP121947 35.2000 150.200 40 0 35.2000 150.200 TC 40 2 62
1947257N25154 1947 66 WP MM LAURA 1947-09-17 21:00:00 TS 35.2401 150.292 main 851 849 P________P____ WP121947 35.2401 150.292 35 0 35.2401 150.292 TC 35 2 58
1947257N25154 1947 66 WP MM LAURA 1947-09-18 00:00:00 TS 35.3000 150.400 main 857 O________O____ jtwc_wp WP121947 35.3000 150.400 30 -1 35.3000 150.400 TC 30 2 55

Digital Typhoon Data and Search

About IBTrACS Database

This database is a web-friendly format of International Best Track Archive for Climate Stewardship (IBTrACS), a global best track data archive curated by NOAA dating back to 1842.

Updated: 2021-11-26